sensor_id;sensor_type;location;lat;lon;timestamp;temperature;humidity
41310;DHT22;27057;51.438;-0.010;2023-10-13T00:00:42;16.20;99.90
41310;DHT22;27057;51.438;-0.010;2023-10-13T00:03:09;16.20;99.90
41310;DHT22;27057;51.438;-0.010;2023-10-13T00:05:43;16.20;99.90
41310;DHT22;27057;51.438;-0.010;2023-10-13T00:08:11;16.20;99.90
41310;DHT22;27057;51.438;-0.010;2023-10-13T00:10:41;16.20;99.90
41310;DHT22;27057;51.438;-0.010;2023-10-13T00:13:09;16.20;99.90
41310;DHT22;27057;51.438;-0.010;2023-10-13T00:15:44;16.20;99.90
41310;DHT22;27057;51.438;-0.010;2023-10-13T00:18:28;16.20;99.90
41310;DHT22;27057;51.438;-0.010;2023-10-13T00:21:03;16.20;99.90
41310;DHT22;27057;51.438;-0.010;2023-10-13T00:23:41;16.20;99.90
41310;DHT22;27057;51.438;-0.010;2023-10-13T00:26:23;16.20;99.90
41310;DHT22;27057;51.438;-0.010;2023-10-13T00:31:39;16.20;99.90
41310;DHT22;27057;51.438;-0.010;2023-10-13T00:34:11;16.20;99.90
41310;DHT22;27057;51.438;-0.010;2023-10-13T00:36:42;16.10;99.90
41310;DHT22;27057;51.438;-0.010;2023-10-13T00:39:16;16.10;99.90
41310;DHT22;27057;51.438;-0.010;2023-10-13T00:41:43;16.10;99.90
41310;DHT22;27057;51.438;-0.010;2023-10-13T00:44:19;16.10;99.90
41310;DHT22;27057;51.438;-0.010;2023-10-13T00:46:55;16.10;99.90
41310;DHT22;27057;51.438;-0.010;2023-10-13T00:49:24;16.10;99.90
41310;DHT22;27057;51.438;-0.010;2023-10-13T00:51:52;16.10;99.90
41310;DHT22;27057;51.438;-0.010;2023-10-13T00:54:20;16.10;99.90
41310;DHT22;27057;51.438;-0.010;2023-10-13T00:56:55;16.10;99.90
41310;DHT22;27057;51.438;-0.010;2023-10-13T00:59:45;16.10;99.90
41310;DHT22;27057;51.438;-0.010;2023-10-13T01:02:14;16.10;99.90
41310;DHT22;27057;51.438;-0.010;2023-10-13T01:05:04;16.20;99.90
41310;DHT22;27057;51.438;-0.010;2023-10-13T01:07:31;16.20;99.90
41310;DHT22;27057;51.438;-0.010;2023-10-13T01:09:59;16.20;99.90
41310;DHT22;27057;51.438;-0.010;2023-10-13T01:12:26;16.20;99.90
41310;DHT22;27057;51.438;-0.010;2023-10-13T01:14:53;16.30;99.90
41310;DHT22;27057;51.438;-0.010;2023-10-13T01:17:23;16.30;99.90
41310;DHT22;27057;51.438;-0.010;2023-10-13T01:19:51;16.30;99.90
41310;DHT22;27057;51.438;-0.010;2023-10-13T01:22:25;16.70;99.90
41310;DHT22;27057;51.438;-0.010;2023-10-13T01:24:56;16.40;99.90
41310;DHT22;27057;51.438;-0.010;2023-10-13T01:27:36;16.50;99.90
41310;DHT22;27057;51.438;-0.010;2023-10-13T01:30:06;16.50;99.90
41310;DHT22;27057;51.438;-0.010;2023-10-13T01:32:40;16.50;99.90
41310;DHT22;27057;51.438;-0.010;2023-10-13T01:35:13;16.60;99.90
41310;DHT22;27057;51.438;-0.010;2023-10-13T01:37:40;16.60;99.90
41310;DHT22;27057;51.438;-0.010;2023-10-13T01:40:08;16.60;99.90
41310;DHT22;27057;51.438;-0.010;2023-10-13T01:42:36;16.60;99.90
41310;DHT22;27057;51.438;-0.010;2023-10-13T01:45:04;16.60;99.90
41310;DHT22;27057;51.438;-0.010;2023-10-13T01:47:34;16.60;99.90
41310;DHT22;27057;51.438;-0.010;2023-10-13T01:50:02;16.60;99.90
41310;DHT22;27057;51.438;-0.010;2023-10-13T01:52:47;16.50;99.90
41310;DHT22;27057;51.438;-0.010;2023-10-13T01:55:14;16.50;99.90
41310;DHT22;27057;51.438;-0.010;2023-10-13T01:57:42;16.50;99.90
41310;DHT22;27057;51.438;-0.010;2023-10-13T02:00:14;16.40;99.90
41310;DHT22;27057;51.438;-0.010;2023-10-13T02:02:47;16.30;99.90
41310;DHT22;27057;51.438;-0.010;2023-10-13T02:05:17;16.30;99.90
41310;DHT22;27057;51.438;-0.010;2023-10-13T02:07:45;16.30;99.90
41310;DHT22;27057;51.438;-0.010;2023-10-13T02:10:13;16.20;99.90
41310;DHT22;27057;51.438;-0.010;2023-10-13T02:12:40;16.20;99.90
41310;DHT22;27057;51.438;-0.010;2023-10-13T02:15:12;16.10;99.90
41310;DHT22;27057;51.438;-0.010;2023-10-13T02:17:41;16.10;99.90
41310;DHT22;27057;51.438;-0.010;2023-10-13T02:20:10;16.00;99.90
41310;DHT22;27057;51.438;-0.010;2023-10-13T02:22:42;16.00;99.90
41310;DHT22;27057;51.438;-0.010;2023-10-13T02:25:19;16.00;99.90
41310;DHT22;27057;51.438;-0.010;2023-10-13T02:28:06;16.00;99.90
41310;DHT22;27057;51.438;-0.010;2023-10-13T02:30:41;15.90;99.90
41310;DHT22;27057;51.438;-0.010;2023-10-13T02:33:13;15.90;99.90
41310;DHT22;27057;51.438;-0.010;2023-10-13T02:35:42;15.90;99.90
41310;DHT22;27057;51.438;-0.010;2023-10-13T02:38:10;15.90;99.90
41310;DHT22;27057;51.438;-0.010;2023-10-13T02:40:39;15.90;99.90
41310;DHT22;27057;51.438;-0.010;2023-10-13T02:43:06;15.90;99.90
41310;DHT22;27057;51.438;-0.010;2023-10-13T02:45:34;15.90;99.90
41310;DHT22;27057;51.438;-0.010;2023-10-13T02:48:04;16.00;99.90
41310;DHT22;27057;51.438;-0.010;2023-10-13T02:50:44;16.00;99.90
41310;DHT22;27057;51.438;-0.010;2023-10-13T02:53:21;16.00;99.90
41310;DHT22;27057;51.438;-0.010;2023-10-13T02:58:17;16.00;99.90
41310;DHT22;27057;51.438;-0.010;2023-10-13T03:00:45;16.00;99.90
41310;DHT22;27057;51.438;-0.010;2023-10-13T03:03:13;16.00;99.90
41310;DHT22;27057;51.438;-0.010;2023-10-13T03:05:46;16.00;99.90
41310;DHT22;27057;51.438;-0.010;2023-10-13T03:08:13;16.00;99.90
41310;DHT22;27057;51.438;-0.010;2023-10-13T03:10:53;16.00;99.90
41310;DHT22;27057;51.438;-0.010;2023-10-13T03:13:21;16.00;99.90
41310;DHT22;27057;51.438;-0.010;2023-10-13T03:15:49;16.10;99.90
41310;DHT22;27057;51.438;-0.010;2023-10-13T03:18:16;16.10;99.90
41310;DHT22;27057;51.438;-0.010;2023-10-13T03:20:46;16.20;99.90
41310;DHT22;27057;51.438;-0.010;2023-10-13T03:23:17;16.20;99.90
41310;DHT22;27057;51.438;-0.010;2023-10-13T03:25:45;16.20;99.90
41310;DHT22;27057;51.438;-0.010;2023-10-13T03:28:20;16.20;99.90
41310;DHT22;27057;51.438;-0.010;2023-10-13T03:30:51;16.30;99.90
41310;DHT22;27057;51.438;-0.010;2023-10-13T03:33:20;16.30;99.90
41310;DHT22;27057;51.438;-0.010;2023-10-13T03:35:54;16.40;99.90
41310;DHT22;27057;51.438;-0.010;2023-10-13T03:38:21;16.50;99.90
41310;DHT22;27057;51.438;-0.010;2023-10-13T03:40:55;16.50;99.90
41310;DHT22;27057;51.438;-0.010;2023-10-13T03:43:35;16.60;99.90
41310;DHT22;27057;51.438;-0.010;2023-10-13T03:46:13;16.60;99.90
41310;DHT22;27057;51.438;-0.010;2023-10-13T03:48:40;16.60;99.90
41310;DHT22;27057;51.438;-0.010;2023-10-13T03:51:19;16.70;99.90
41310;DHT22;27057;51.438;-0.010;2023-10-13T03:53:47;16.70;99.90
41310;DHT22;27057;51.438;-0.010;2023-10-13T03:56:25;16.80;99.90
41310;DHT22;27057;51.438;-0.010;2023-10-13T03:58:59;16.80;99.90
41310;DHT22;27057;51.438;-0.010;2023-10-13T04:01:33;16.80;99.90
41310;DHT22;27057;51.438;-0.010;2023-10-13T04:04:19;16.80;99.90
41310;DHT22;27057;51.438;-0.010;2023-10-13T04:07:04;16.80;99.90
41310;DHT22;27057;51.438;-0.010;2023-10-13T04:09:32;16.90;99.90
41310;DHT22;27057;51.438;-0.010;2023-10-13T04:12:01;16.90;99.90
41310;DHT22;27057;51.438;-0.010;2023-10-13T04:14:32;17.00;99.90
41310;DHT22;27057;51.438;-0.010;2023-10-13T04:17:19;17.00;99.90
41310;DHT22;27057;51.438;-0.010;2023-10-13T04:19:58;17.10;99.90
41310;DHT22;27057;51.438;-0.010;2023-10-13T04:22:42;17.20;99.90
41310;DHT22;27057;51.438;-0.010;2023-10-13T04:25:25;17.20;99.90
41310;DHT22;27057;51.438;-0.010;2023-10-13T04:28:14;17.30;99.90
41310;DHT22;27057;51.438;-0.010;2023-10-13T04:30:47;17.30;99.90
41310;DHT22;27057;51.438;-0.010;2023-10-13T04:33:27;17.30;99.90
41310;DHT22;27057;51.438;-0.010;2023-10-13T04:36:05;17.40;99.90
41310;DHT22;27057;51.438;-0.010;2023-10-13T04:38:44;17.40;99.90
41310;DHT22;27057;51.438;-0.010;2023-10-13T04:41:47;17.50;99.90
41310;DHT22;27057;51.438;-0.010;2023-10-13T04:44:17;17.50;99.90
41310;DHT22;27057;51.438;-0.010;2023-10-13T04:46:58;17.60;99.90
41310;DHT22;27057;51.438;-0.010;2023-10-13T04:49:30;17.60;99.90
41310;DHT22;27057;51.438;-0.010;2023-10-13T04:52:07;17.60;99.90
41310;DHT22;27057;51.438;-0.010;2023-10-13T04:54:42;17.70;99.90
41310;DHT22;27057;51.438;-0.010;2023-10-13T04:57:17;17.70;99.90
41310;DHT22;27057;51.438;-0.010;2023-10-13T04:59:48;17.70;99.90
41310;DHT22;27057;51.438;-0.010;2023-10-13T05:02:31;17.80;99.90
41310;DHT22;27057;51.438;-0.010;2023-10-13T05:05:12;17.80;99.90
41310;DHT22;27057;51.438;-0.010;2023-10-13T05:07:46;17.90;99.90
41310;DHT22;27057;51.438;-0.010;2023-10-13T05:10:35;17.90;99.90
41310;DHT22;27057;51.438;-0.010;2023-10-13T05:13:21;17.90;99.90
41310;DHT22;27057;51.438;-0.010;2023-10-13T05:16:07;18.00;99.90
41310;DHT22;27057;51.438;-0.010;2023-10-13T05:18:53;18.00;99.90
41310;DHT22;27057;51.438;-0.010;2023-10-13T05:21:39;18.00;99.90
41310;DHT22;27057;51.438;-0.010;2023-10-13T05:24:25;18.00;99.90
41310;DHT22;27057;51.438;-0.010;2023-10-13T05:27:11;18.00;99.90
41310;DHT22;27057;51.438;-0.010;2023-10-13T05:29:57;18.10;99.90
41310;DHT22;27057;51.438;-0.010;2023-10-13T05:32:43;18.00;99.90
41310;DHT22;27057;51.438;-0.010;2023-10-13T05:35:31;18.10;99.90
41310;DHT22;27057;51.438;-0.010;2023-10-13T05:38:17;18.10;99.90
41310;DHT22;27057;51.438;-0.010;2023-10-13T05:41:04;18.10;99.90
41310;DHT22;27057;51.438;-0.010;2023-10-13T05:43:52;18.20;99.90
41310;DHT22;27057;51.438;-0.010;2023-10-13T05:46:38;18.20;99.90
41310;DHT22;27057;51.438;-0.010;2023-10-13T05:49:08;18.20;99.90
41310;DHT22;27057;51.438;-0.010;2023-10-13T05:51:44;18.30;99.90
41310;DHT22;27057;51.438;-0.010;2023-10-13T05:54:25;18.30;99.90
41310;DHT22;27057;51.438;-0.010;2023-10-13T05:57:11;18.20;99.90
41310;DHT22;27057;51.438;-0.010;2023-10-13T05:59:57;18.30;99.90
41310;DHT22;27057;51.438;-0.010;2023-10-13T06:02:43;18.30;99.90
41310;DHT22;27057;51.438;-0.010;2023-10-13T06:05:43;18.40;99.90
41310;DHT22;27057;51.438;-0.010;2023-10-13T06:08:29;18.40;99.90
41310;DHT22;27057;51.438;-0.010;2023-10-13T06:11:15;18.40;99.90
41310;DHT22;27057;51.438;-0.010;2023-10-13T06:14:01;18.50;99.90
41310;DHT22;27057;51.438;-0.010;2023-10-13T06:16:47;18.60;99.90
41310;DHT22;27057;51.438;-0.010;2023-10-13T06:19:33;18.60;99.90
41310;DHT22;27057;51.438;-0.010;2023-10-13T06:22:19;18.70;99.90
41310;DHT22;27057;51.438;-0.010;2023-10-13T06:25:05;18.70;99.90
41310;DHT22;27057;51.438;-0.010;2023-10-13T06:27:52;18.80;99.90
41310;DHT22;27057;51.438;-0.010;2023-10-13T06:30:38;18.80;99.90
41310;DHT22;27057;51.438;-0.010;2023-10-13T06:33:05;18.80;99.90
41310;DHT22;27057;51.438;-0.010;2023-10-13T06:35:32;18.80;99.90
41310;DHT22;27057;51.438;-0.010;2023-10-13T06:38:01;18.80;99.90
41310;DHT22;27057;51.438;-0.010;2023-10-13T06:40:29;18.90;99.90
41310;DHT22;27057;51.438;-0.010;2023-10-13T06:42:57;18.90;99.90
41310;DHT22;27057;51.438;-0.010;2023-10-13T06:45:40;18.90;99.90
41310;DHT22;27057;51.438;-0.010;2023-10-13T06:48:08;18.90;99.90
41310;DHT22;27057;51.438;-0.010;2023-10-13T06:50:39;18.90;99.90
41310;DHT22;27057;51.438;-0.010;2023-10-13T06:53:09;19.00;99.90
41310;DHT22;27057;51.438;-0.010;2023-10-13T06:55:40;19.00;99.90
41310;DHT22;27057;51.438;-0.010;2023-10-13T06:58:07;19.00;99.90
41310;DHT22;27057;51.438;-0.010;2023-10-13T07:00:41;19.00;99.90
41310;DHT22;27057;51.438;-0.010;2023-10-13T07:03:20;18.80;99.90
41310;DHT22;27057;51.438;-0.010;2023-10-13T07:05:48;18.70;99.90
41310;DHT22;27057;51.438;-0.010;2023-10-13T07:08:16;18.60;99.90
41310;DHT22;27057;51.438;-0.010;2023-10-13T07:13:29;18.40;99.90
41310;DHT22;27057;51.438;-0.010;2023-10-13T07:15:57;18.40;99.90
41310;DHT22;27057;51.438;-0.010;2023-10-13T07:18:42;18.30;99.90
41310;DHT22;27057;51.438;-0.010;2023-10-13T07:21:22;18.30;99.90
41310;DHT22;27057;51.438;-0.010;2023-10-13T07:23:59;18.30;99.90
41310;DHT22;27057;51.438;-0.010;2023-10-13T07:26:38;18.40;99.90
41310;DHT22;27057;51.438;-0.010;2023-10-13T07:29:24;18.40;99.90
41310;DHT22;27057;51.438;-0.010;2023-10-13T07:31:52;18.50;99.90
41310;DHT22;27057;51.438;-0.010;2023-10-13T07:34:19;18.50;99.90
41310;DHT22;27057;51.438;-0.010;2023-10-13T07:36:59;18.50;99.90
41310;DHT22;27057;51.438;-0.010;2023-10-13T07:39:29;18.60;99.90
41310;DHT22;27057;51.438;-0.010;2023-10-13T07:42:02;18.60;99.90
41310;DHT22;27057;51.438;-0.010;2023-10-13T07:44:33;18.60;99.90
41310;DHT22;27057;51.438;-0.010;2023-10-13T07:47:01;18.60;99.90
41310;DHT22;27057;51.438;-0.010;2023-10-13T07:49:37;18.70;99.90
41310;DHT22;27057;51.438;-0.010;2023-10-13T07:52:07;18.70;99.90
41310;DHT22;27057;51.438;-0.010;2023-10-13T07:54:51;18.70;99.90
41310;DHT22;27057;51.438;-0.010;2023-10-13T07:57:51;18.60;99.90
41310;DHT22;27057;51.438;-0.010;2023-10-13T08:00:23;18.50;99.90
41310;DHT22;27057;51.438;-0.010;2023-10-13T08:03:14;18.40;99.90
41310;DHT22;27057;51.438;-0.010;2023-10-13T08:05:43;18.30;99.90
41310;DHT22;27057;51.438;-0.010;2023-10-13T08:08:33;18.30;99.90
41310;DHT22;27057;51.438;-0.010;2023-10-13T08:11:16;18.20;99.90
41310;DHT22;27057;51.438;-0.010;2023-10-13T08:14:03;18.10;99.90
41310;DHT22;27057;51.438;-0.010;2023-10-13T08:16:59;18.20;99.90
41310;DHT22;27057;51.438;-0.010;2023-10-13T08:19:28;18.20;99.90
41310;DHT22;27057;51.438;-0.010;2023-10-13T08:21:59;18.20;99.90
41310;DHT22;27057;51.438;-0.010;2023-10-13T08:24:48;18.20;99.90
41310;DHT22;27057;51.438;-0.010;2023-10-13T08:27:19;18.30;99.90
41310;DHT22;27057;51.438;-0.010;2023-10-13T08:30:03;18.30;99.90
41310;DHT22;27057;51.438;-0.010;2023-10-13T08:32:49;18.40;99.90
41310;DHT22;27057;51.438;-0.010;2023-10-13T08:35:27;18.40;99.90
41310;DHT22;27057;51.438;-0.010;2023-10-13T08:38:03;18.40;99.90
41310;DHT22;27057;51.438;-0.010;2023-10-13T08:40:59;18.40;99.90
41310;DHT22;27057;51.438;-0.010;2023-10-13T08:43:27;18.40;99.90
41310;DHT22;27057;51.438;-0.010;2023-10-13T08:46:10;18.40;99.90
41310;DHT22;27057;51.438;-0.010;2023-10-13T08:48:56;18.30;99.90
41310;DHT22;27057;51.438;-0.010;2023-10-13T08:51:43;18.20;99.90
41310;DHT22;27057;51.438;-0.010;2023-10-13T08:54:13;18.20;99.90
41310;DHT22;27057;51.438;-0.010;2023-10-13T08:56:48;18.20;99.90
41310;DHT22;27057;51.438;-0.010;2023-10-13T08:59:23;18.10;99.90
41310;DHT22;27057;51.438;-0.010;2023-10-13T09:02:15;18.00;99.90
41310;DHT22;27057;51.438;-0.010;2023-10-13T09:04:43;18.00;99.90
41310;DHT22;27057;51.438;-0.010;2023-10-13T09:07:44;18.00;99.90
41310;DHT22;27057;51.438;-0.010;2023-10-13T09:10:29;17.90;99.90
41310;DHT22;27057;51.438;-0.010;2023-10-13T09:13:12;17.80;99.90
41310;DHT22;27057;51.438;-0.010;2023-10-13T09:15:48;17.80;99.90
41310;DHT22;27057;51.438;-0.010;2023-10-13T09:18:28;17.80;99.90
41310;DHT22;27057;51.438;-0.010;2023-10-13T09:21:10;17.80;99.90
41310;DHT22;27057;51.438;-0.010;2023-10-13T09:24:01;17.70;99.90
41310;DHT22;27057;51.438;-0.010;2023-10-13T09:26:50;17.80;99.90
41310;DHT22;27057;51.438;-0.010;2023-10-13T09:29:23;17.80;99.90
41310;DHT22;27057;51.438;-0.010;2023-10-13T09:32:02;17.80;99.90
41310;DHT22;27057;51.438;-0.010;2023-10-13T09:34:31;17.80;99.90
41310;DHT22;27057;51.438;-0.010;2023-10-13T09:37:02;17.80;99.90
41310;DHT22;27057;51.438;-0.010;2023-10-13T09:39:34;17.80;99.90
41310;DHT22;27057;51.438;-0.010;2023-10-13T09:42:12;17.80;99.90
41310;DHT22;27057;51.438;-0.010;2023-10-13T09:44:45;17.80;99.90
41310;DHT22;27057;51.438;-0.010;2023-10-13T09:47:22;17.80;99.90
41310;DHT22;27057;51.438;-0.010;2023-10-13T09:50:00;17.70;99.90
41310;DHT22;27057;51.438;-0.010;2023-10-13T09:52:33;17.70;99.90
41310;DHT22;27057;51.438;-0.010;2023-10-13T09:55:15;17.70;99.90
41310;DHT22;27057;51.438;-0.010;2023-10-13T09:57:53;17.70;99.90
41310;DHT22;27057;51.438;-0.010;2023-10-13T10:00:29;17.70;99.90
41310;DHT22;27057;51.438;-0.010;2023-10-13T10:03:09;17.70;99.90
41310;DHT22;27057;51.438;-0.010;2023-10-13T10:05:43;17.70;99.90
41310;DHT22;27057;51.438;-0.010;2023-10-13T10:08:24;17.70;99.90
41310;DHT22;27057;51.438;-0.010;2023-10-13T10:11:12;17.70;99.90
41310;DHT22;27057;51.438;-0.010;2023-10-13T10:16:47;17.80;99.90
41310;DHT22;27057;51.438;-0.010;2023-10-13T10:19:18;17.80;99.90
41310;DHT22;27057;51.438;-0.010;2023-10-13T10:21:45;17.90;99.90
41310;DHT22;27057;51.438;-0.010;2023-10-13T10:24:20;17.90;99.90
41310;DHT22;27057;51.438;-0.010;2023-10-13T10:26:57;17.90;99.90
41310;DHT22;27057;51.438;-0.010;2023-10-13T10:29:24;18.00;99.90
41310;DHT22;27057;51.438;-0.010;2023-10-13T10:31:52;18.00;99.90
41310;DHT22;27057;51.438;-0.010;2023-10-13T10:34:19;18.10;99.90
41310;DHT22;27057;51.438;-0.010;2023-10-13T10:36:54;18.10;99.90
41310;DHT22;27057;51.438;-0.010;2023-10-13T10:39:36;18.20;99.90
41310;DHT22;27057;51.438;-0.010;2023-10-13T10:42:13;18.20;99.90
41310;DHT22;27057;51.438;-0.010;2023-10-13T10:44:50;18.30;99.90
41310;DHT22;27057;51.438;-0.010;2023-10-13T10:47:22;18.30;99.90
41310;DHT22;27057;51.438;-0.010;2023-10-13T10:50:01;18.40;99.90
41310;DHT22;27057;51.438;-0.010;2023-10-13T10:52:34;18.40;99.90
41310;DHT22;27057;51.438;-0.010;2023-10-13T10:55:07;18.50;99.90
41310;DHT22;27057;51.438;-0.010;2023-10-13T10:57:41;18.50;99.90
41310;DHT22;27057;51.438;-0.010;2023-10-13T11:00:20;18.60;99.90
41310;DHT22;27057;51.438;-0.010;2023-10-13T11:02:57;18.70;99.90
41310;DHT22;27057;51.438;-0.010;2023-10-13T11:05:25;18.80;99.90
41310;DHT22;27057;51.438;-0.010;2023-10-13T11:07:59;18.90;99.90
41310;DHT22;27057;51.438;-0.010;2023-10-13T11:10:29;19.10;99.90
41310;DHT22;27057;51.438;-0.010;2023-10-13T11:13:00;19.20;99.90
41310;DHT22;27057;51.438;-0.010;2023-10-13T11:15:44;19.30;99.90
41310;DHT22;27057;51.438;-0.010;2023-10-13T11:18:12;19.60;99.90
41310;DHT22;27057;51.438;-0.010;2023-10-13T11:20:49;19.70;99.90
41310;DHT22;27057;51.438;-0.010;2023-10-13T11:23:23;19.90;99.90
41310;DHT22;27057;51.438;-0.010;2023-10-13T11:25:59;20.00;99.90
41310;DHT22;27057;51.438;-0.010;2023-10-13T11:28:27;20.10;99.90
41310;DHT22;27057;51.438;-0.010;2023-10-13T11:30:55;20.30;99.90
41310;DHT22;27057;51.438;-0.010;2023-10-13T11:33:27;20.50;99.90
41310;DHT22;27057;51.438;-0.010;2023-10-13T11:35:57;20.50;99.90
41310;DHT22;27057;51.438;-0.010;2023-10-13T11:43:32;20.70;99.90
41310;DHT22;27057;51.438;-0.010;2023-10-13T11:46:02;20.70;99.90
41310;DHT22;27057;51.438;-0.010;2023-10-13T11:48:36;20.70;99.90
41310;DHT22;27057;51.438;-0.010;2023-10-13T11:51:05;20.70;99.90
41310;DHT22;27057;51.438;-0.010;2023-10-13T11:53:36;20.60;99.90
41310;DHT22;27057;51.438;-0.010;2023-10-13T11:56:04;20.60;99.90
41310;DHT22;27057;51.438;-0.010;2023-10-13T11:58:39;20.50;99.90
41310;DHT22;27057;51.438;-0.010;2023-10-13T12:01:06;20.40;99.90
41310;DHT22;27057;51.438;-0.010;2023-10-13T12:03:40;20.50;99.90
41310;DHT22;27057;51.438;-0.010;2023-10-13T12:06:27;20.40;99.90
41310;DHT22;27057;51.438;-0.010;2023-10-13T12:09:06;20.50;99.90
41310;DHT22;27057;51.438;-0.010;2023-10-13T12:11:47;20.50;99.90
41310;DHT22;27057;51.438;-0.010;2023-10-13T12:14:15;20.50;99.90
41310;DHT22;27057;51.438;-0.010;2023-10-13T12:17:04;20.50;99.90
41310;DHT22;27057;51.438;-0.010;2023-10-13T12:19:37;20.60;99.90
41310;DHT22;27057;51.438;-0.010;2023-10-13T12:22:06;20.50;99.90
41310;DHT22;27057;51.438;-0.010;2023-10-13T12:24:35;20.40;99.90
41310;DHT22;27057;51.438;-0.010;2023-10-13T12:27:04;20.40;99.90
41310;DHT22;27057;51.438;-0.010;2023-10-13T12:29:52;20.40;99.90
41310;DHT22;27057;51.438;-0.010;2023-10-13T12:32:20;20.30;99.90
41310;DHT22;27057;51.438;-0.010;2023-10-13T12:34:58;20.30;99.90
41310;DHT22;27057;51.438;-0.010;2023-10-13T12:37:32;20.40;99.90
41310;DHT22;27057;51.438;-0.010;2023-10-13T12:40:18;20.70;99.90
41310;DHT22;27057;51.438;-0.010;2023-10-13T12:43:05;21.00;99.90
41310;DHT22;27057;51.438;-0.010;2023-10-13T12:45:51;21.00;99.90
41310;DHT22;27057;51.438;-0.010;2023-10-13T12:48:37;20.90;99.90
41310;DHT22;27057;51.438;-0.010;2023-10-13T12:51:26;20.70;99.90
41310;DHT22;27057;51.438;-0.010;2023-10-13T12:54:02;20.60;99.90
41310;DHT22;27057;51.438;-0.010;2023-10-13T12:56:32;20.50;99.90
41310;DHT22;27057;51.438;-0.010;2023-10-13T12:59:00;20.40;99.90
41310;DHT22;27057;51.438;-0.010;2023-10-13T13:01:27;20.30;99.90
41310;DHT22;27057;51.438;-0.010;2023-10-13T13:04:00;20.20;99.90
41310;DHT22;27057;51.438;-0.010;2023-10-13T13:06:31;20.10;99.90
41310;DHT22;27057;51.438;-0.010;2023-10-13T13:09:01;20.00;99.90
41310;DHT22;27057;51.438;-0.010;2023-10-13T13:11:29;20.00;99.90
41310;DHT22;27057;51.438;-0.010;2023-10-13T13:13:57;20.00;99.90
41310;DHT22;27057;51.438;-0.010;2023-10-13T13:16:24;20.00;99.90
41310;DHT22;27057;51.438;-0.010;2023-10-13T13:18:53;20.10;99.90
41310;DHT22;27057;51.438;-0.010;2023-10-13T13:21:24;20.20;99.90
41310;DHT22;27057;51.438;-0.010;2023-10-13T13:23:51;20.20;99.90
41310;DHT22;27057;51.438;-0.010;2023-10-13T13:26:22;20.30;99.90
41310;DHT22;27057;51.438;-0.010;2023-10-13T13:28:50;20.40;99.90
41310;DHT22;27057;51.438;-0.010;2023-10-13T13:31:18;20.50;99.90
41310;DHT22;27057;51.438;-0.010;2023-10-13T13:33:49;20.50;99.90
41310;DHT22;27057;51.438;-0.010;2023-10-13T13:36:17;20.70;99.90
41310;DHT22;27057;51.438;-0.010;2023-10-13T13:38:45;21.10;99.90
41310;DHT22;27057;51.438;-0.010;2023-10-13T13:41:21;21.40;99.90
41310;DHT22;27057;51.438;-0.010;2023-10-13T13:43:49;21.80;99.90
41310;DHT22;27057;51.438;-0.010;2023-10-13T13:46:21;22.20;99.90
41310;DHT22;27057;51.438;-0.010;2023-10-13T13:48:52;22.30;99.90
41310;DHT22;27057;51.438;-0.010;2023-10-13T13:51:26;22.20;99.90
41310;DHT22;27057;51.438;-0.010;2023-10-13T13:53:55;21.80;99.90
41310;DHT22;27057;51.438;-0.010;2023-10-13T13:56:23;21.70;99.90
41310;DHT22;27057;51.438;-0.010;2023-10-13T13:58:53;21.40;99.90
41310;DHT22;27057;51.438;-0.010;2023-10-13T14:01:21;21.10;99.90
41310;DHT22;27057;51.438;-0.010;2023-10-13T14:03:49;21.00;99.90
41310;DHT22;27057;51.438;-0.010;2023-10-13T14:06:19;20.80;99.90
41310;DHT22;27057;51.438;-0.010;2023-10-13T14:08:57;21.00;99.90
41310;DHT22;27057;51.438;-0.010;2023-10-13T14:11:30;21.30;99.90
41310;DHT22;27057;51.438;-0.010;2023-10-13T14:14:11;21.20;99.90
41310;DHT22;27057;51.438;-0.010;2023-10-13T14:16:40;21.10;99.90
41310;DHT22;27057;51.438;-0.010;2023-10-13T14:19:17;20.80;99.90
41310;DHT22;27057;51.438;-0.010;2023-10-13T14:21:58;20.60;99.90
41310;DHT22;27057;51.438;-0.010;2023-10-13T14:24:26;20.50;99.90
41310;DHT22;27057;51.438;-0.010;2023-10-13T14:27:01;20.50;99.90
41310;DHT22;27057;51.438;-0.010;2023-10-13T14:29:36;20.40;99.90
41310;DHT22;27057;51.438;-0.010;2023-10-13T14:32:13;20.40;99.90
41310;DHT22;27057;51.438;-0.010;2023-10-13T14:34:43;20.40;99.90
41310;DHT22;27057;51.438;-0.010;2023-10-13T14:37:11;20.50;99.90
41310;DHT22;27057;51.438;-0.010;2023-10-13T14:39:40;20.50;99.90
41310;DHT22;27057;51.438;-0.010;2023-10-13T14:42:08;20.50;99.90
41310;DHT22;27057;51.438;-0.010;2023-10-13T14:44:35;20.80;99.90
41310;DHT22;27057;51.438;-0.010;2023-10-13T14:47:04;20.90;99.90
41310;DHT22;27057;51.438;-0.010;2023-10-13T14:49:36;21.40;99.90
41310;DHT22;27057;51.438;-0.010;2023-10-13T14:52:04;21.90;99.90
41310;DHT22;27057;51.438;-0.010;2023-10-13T14:54:31;22.40;99.90
41310;DHT22;27057;51.438;-0.010;2023-10-13T14:57:02;22.70;99.90
41310;DHT22;27057;51.438;-0.010;2023-10-13T14:59:30;23.00;99.90
41310;DHT22;27057;51.438;-0.010;2023-10-13T15:02:01;23.10;99.90
41310;DHT22;27057;51.438;-0.010;2023-10-13T15:04:31;23.00;99.90
41310;DHT22;27057;51.438;-0.010;2023-10-13T15:07:01;23.10;99.90
41310;DHT22;27057;51.438;-0.010;2023-10-13T15:09:31;23.30;99.90
41310;DHT22;27057;51.438;-0.010;2023-10-13T15:11:58;23.10;99.90
41310;DHT22;27057;51.438;-0.010;2023-10-13T15:14:26;22.60;99.90
41310;DHT22;27057;51.438;-0.010;2023-10-13T15:16:53;22.80;99.90
41310;DHT22;27057;51.438;-0.010;2023-10-13T15:19:22;22.50;99.90
41310;DHT22;27057;51.438;-0.010;2023-10-13T15:21:50;22.60;99.90
41310;DHT22;27057;51.438;-0.010;2023-10-13T15:24:19;22.70;99.90
41310;DHT22;27057;51.438;-0.010;2023-10-13T15:26:57;22.70;99.90
41310;DHT22;27057;51.438;-0.010;2023-10-13T15:29:30;22.60;99.90
41310;DHT22;27057;51.438;-0.010;2023-10-13T15:32:05;22.80;99.90
41310;DHT22;27057;51.438;-0.010;2023-10-13T15:34:52;23.10;99.90
41310;DHT22;27057;51.438;-0.010;2023-10-13T15:37:20;23.10;99.90
41310;DHT22;27057;51.438;-0.010;2023-10-13T15:39:52;22.90;99.90
41310;DHT22;27057;51.438;-0.010;2023-10-13T15:42:19;23.00;99.90
41310;DHT22;27057;51.438;-0.010;2023-10-13T15:44:48;22.70;99.90
41310;DHT22;27057;51.438;-0.010;2023-10-13T15:47:17;22.50;99.90
41310;DHT22;27057;51.438;-0.010;2023-10-13T15:49:47;22.50;99.90
41310;DHT22;27057;51.438;-0.010;2023-10-13T15:52:15;22.30;99.90
41310;DHT22;27057;51.438;-0.010;2023-10-13T15:54:43;22.10;99.90
41310;DHT22;27057;51.438;-0.010;2023-10-13T15:57:10;22.10;99.90
41310;DHT22;27057;51.438;-0.010;2023-10-13T15:59:43;22.00;99.90
41310;DHT22;27057;51.438;-0.010;2023-10-13T16:02:14;22.00;99.90
41310;DHT22;27057;51.438;-0.010;2023-10-13T16:04:44;21.60;99.90
41310;DHT22;27057;51.438;-0.010;2023-10-13T16:07:12;21.20;99.90
41310;DHT22;27057;51.438;-0.010;2023-10-13T16:09:39;21.00;99.90
41310;DHT22;27057;51.438;-0.010;2023-10-13T16:12:07;20.60;99.90
41310;DHT22;27057;51.438;-0.010;2023-10-13T16:14:38;20.50;99.90
41310;DHT22;27057;51.438;-0.010;2023-10-13T16:17:05;20.70;99.90